createdAt,value
2017-07-06T00:00:27.419Z,94.45
2017-07-06T00:00:55.449Z,95.17
2017-07-06T00:01:23.475Z,94.6
2017-07-06T00:01:51.495Z,94.79
2017-07-06T00:02:19.516Z,94.79
2017-07-06T00:02:47.256Z,94.7
2017-07-06T00:03:15.264Z,95.12
2017-07-06T00:03:43.321Z,94.74
2017-07-06T00:04:11.413Z,94.74
2017-07-06T00:04:39.468Z,94.84
2017-07-06T00:05:07.494Z,94.79
2017-07-06T00:05:35.624Z,94.84
2017-07-06T00:06:03.656Z,94.7
2017-07-06T00:06:31.605Z,94.79
2017-07-06T00:06:59.602Z,94.6
2017-07-06T00:07:27.697Z,95.07
2017-07-06T00:07:55.841Z,95.56
2017-07-06T00:08:24.008Z,95.56
2017-07-06T00:08:52.063Z,95.27
2017-07-06T00:09:20.182Z,95.56
2017-07-06T00:09:48.281Z,96.42
2017-07-06T00:10:16.317Z,96.22
2017-07-06T00:10:44.349Z,96.22
2017-07-06T00:11:12.270Z,96.03
2017-07-06T00:11:40.463Z,96.32
2017-07-06T00:12:08.588Z,96.32
2017-07-06T00:12:36.612Z,96.22
2017-07-06T00:13:04.629Z,96.32
2017-07-06T00:13:32.665Z,96.42
2017-07-06T00:14:00.610Z,96.8
2017-07-06T00:14:28.748Z,96.51
2017-07-06T00:14:56.745Z,96.61
2017-07-06T00:15:24.875Z,97.08
2017-07-06T00:15:52.787Z,96.99
2017-07-06T00:16:20.837Z,96.89
2017-07-06T00:16:48.888Z,96.89
2017-07-06T00:17:16.927Z,97.08
2017-07-06T00:17:44.962Z,96.51
2017-07-06T00:18:13.113Z,96.89
2017-07-06T00:18:41.165Z,96.8
2017-07-06T00:19:09.255Z,96.8
2017-07-06T00:19:37.363Z,96.7
2017-07-06T00:20:05.555Z,96.8
2017-07-06T00:20:33.574Z,97.08
2017-07-06T00:21:01.541Z,96.32
2017-07-06T00:21:29.574Z,96.61
2017-07-06T00:21:57.681Z,96.22
2017-07-06T00:22:25.664Z,96.03
2017-07-06T00:22:53.563Z,96.13
2017-07-06T00:23:21.377Z,96.03
2017-07-06T00:23:49.213Z,96.42
2017-07-06T00:24:17.233Z,96.32
2017-07-06T00:24:45.156Z,96.22
2017-07-06T00:25:13.166Z,96.51
2017-07-06T00:25:40.978Z,96.42
2017-07-06T00:26:08.881Z,96.13
2017-07-06T00:26:36.999Z,96.22
2017-07-06T00:27:04.962Z,96.51
2017-07-06T00:27:32.988Z,96.8
2017-07-06T00:28:00.928Z,97.08
2017-07-06T00:28:28.879Z,97.08
2017-07-06T00:28:57.016Z,97.37
2017-07-06T00:29:24.899Z,97.47
2017-07-06T00:29:52.721Z,97.08
2017-07-06T00:30:20.907Z,97.95
2017-07-06T00:30:48.997Z,97.66
2017-07-06T00:31:17.259Z,97.66
2017-07-06T00:31:50.385Z,98.61
2017-07-06T00:32:18.846Z,98.14
2017-07-06T00:32:47.145Z,98.47
2017-07-06T00:33:15.678Z,98.52
2017-07-06T00:33:45.314Z,98.43
2017-07-06T00:34:13.244Z,98.33
2017-07-06T00:34:41.373Z,98.43
2017-07-06T00:35:09.502Z,98.18
2017-07-06T00:35:37.527Z,98.71
2017-07-06T00:36:05.454Z,98.52
2017-07-06T00:36:33.389Z,98.71
2017-07-06T00:37:01.325Z,99.43
2017-07-06T00:37:29.247Z,98.47
2017-07-06T00:37:57.388Z,98.66
2017-07-06T00:38:25.205Z,99.14
2017-07-06T00:38:53.214Z,99.14
2017-07-06T00:39:21.061Z,99.14
2017-07-06T00:39:49.170Z,99.14
2017-07-06T00:40:17.127Z,98.85
2017-07-06T00:40:45.159Z,98.75
2017-07-06T00:41:13.165Z,99.14
2017-07-06T00:41:41.223Z,98.85
2017-07-06T00:42:09.157Z,99.38
2017-07-06T00:42:37.163Z,99.04
2017-07-06T00:43:05.102Z,99.14
2017-07-06T00:43:33.214Z,99.24
2017-07-06T00:44:01.219Z,98.85
2017-07-06T00:44:29.269Z,98.95
2017-07-06T00:44:57.321Z,99.33
2017-07-06T00:45:25.362Z,99.43
2017-07-06T00:45:53.283Z,99.43
2017-07-06T00:46:21.225Z,99.19
2017-07-06T00:46:49.175Z,99.04
2017-07-06T00:47:17.079Z,99.14
2017-07-06T00:47:44.984Z,98.75
2017-07-06T00:48:13.124Z,98.66
2017-07-06T00:48:41.145Z,98.47
2017-07-06T00:49:09.152Z,98.66
2017-07-06T00:49:37.157Z,98.66
2017-07-06T00:50:05.095Z,98.52
2017-07-06T00:50:33.117Z,98.66
2017-07-06T00:51:01.268Z,98.33
2017-07-06T00:51:29.262Z,98.66
2017-07-06T00:51:57.304Z,97.99
2017-07-06T00:52:25.232Z,97.75
2017-07-06T00:52:53.350Z,98.61
2017-07-06T00:53:21.469Z,98.33
2017-07-06T00:53:49.261Z,98.66
2017-07-06T00:54:16.999Z,99.14
2017-07-06T00:54:44.811Z,99.14
2017-07-06T00:55:12.845Z,99.04
2017-07-06T00:55:40.855Z,99.04
2017-07-06T00:56:08.891Z,99.04
2017-07-06T00:56:36.921Z,98.85
2017-07-06T00:57:04.857Z,98.85
2017-07-06T00:57:32.954Z,99.04
2017-07-06T00:58:00.988Z,99
2017-07-06T00:58:29.015Z,98.95
2017-07-06T00:58:57.127Z,99.24
2017-07-06T00:59:25.237Z,99.24
2017-07-06T00:59:53.240Z,98.75
2017-07-06T01:00:21.363Z,98.85
2017-07-06T01:00:49.357Z,98.95
2017-07-06T01:01:17.383Z,99.33
2017-07-06T01:01:45.426Z,98.85
2017-07-06T01:02:13.553Z,99.33
2017-07-06T01:02:41.486Z,99.19
2017-07-06T01:03:09.490Z,98.85
2017-07-06T01:03:37.629Z,98.85
2017-07-06T01:04:05.747Z,99.04
2017-07-06T01:04:33.872Z,99.19
2017-07-06T01:05:01.905Z,98.85
2017-07-06T01:05:30.018Z,99.04
2017-07-06T01:05:58.168Z,99.14
2017-07-06T01:06:26.382Z,98.95
2017-07-06T01:06:54.210Z,99.14
2017-07-06T01:07:22.245Z,99.14
2017-07-06T01:07:50.375Z,99.04
2017-07-06T01:08:18.513Z,98.66
2017-07-06T01:08:46.642Z,99.48
2017-07-06T01:09:14.670Z,98.95
2017-07-06T01:09:42.694Z,98.85
2017-07-06T01:10:10.692Z,99.04
2017-07-06T01:10:39.221Z,99.04
2017-07-06T01:11:07.156Z,99.04
2017-07-06T01:11:34.960Z,99.04
2017-07-06T01:12:02.973Z,99.14
2017-07-06T01:12:30.987Z,99.33
2017-07-06T01:12:58.990Z,98.95
2017-07-06T01:13:26.893Z,98.85
2017-07-06T01:13:54.833Z,99.04
2017-07-06T01:14:22.853Z,98.85
2017-07-06T01:14:50.850Z,99.14
2017-07-06T01:15:18.983Z,99.04
2017-07-06T01:15:47.044Z,99.24
2017-07-06T01:16:15.165Z,99.33
2017-07-06T01:16:43.270Z,99.43
2017-07-06T01:17:11.404Z,99.33
2017-07-06T01:17:39.391Z,98.95
2017-07-06T01:18:07.407Z,99.14
2017-07-06T01:18:35.537Z,99.04
2017-07-06T01:19:03.583Z,98.95
2017-07-06T01:19:31.618Z,99.24
2017-07-06T01:19:59.734Z,98.57
2017-07-06T01:20:27.874Z,98.57
2017-07-06T01:20:55.791Z,98.57
2017-07-06T01:21:23.834Z,98.71
2017-07-06T01:21:51.637Z,98.28
2017-07-06T01:22:19.418Z,98.18
2017-07-06T01:22:47.041Z,98.47
2017-07-06T01:23:14.897Z,98.28
2017-07-06T01:23:42.819Z,98.66
2017-07-06T01:24:10.732Z,97.9
2017-07-06T01:24:38.728Z,97.61
2017-07-06T01:25:06.652Z,97.61
2017-07-06T01:25:34.670Z,97.99
2017-07-06T01:26:02.711Z,97.66
2017-07-06T01:26:30.829Z,97.61
2017-07-06T01:26:58.860Z,97.71
2017-07-06T01:27:26.895Z,97.71
2017-07-06T01:27:54.924Z,97.8
2017-07-06T01:28:22.947Z,98.47
2017-07-06T01:28:51.070Z,98.57
2017-07-06T01:29:18.991Z,98.43
2017-07-06T01:29:47.118Z,98.28
2017-07-06T01:30:15.034Z,98.28
2017-07-06T01:30:43.166Z,98.66
2017-07-06T01:31:11.277Z,98.95
2017-07-06T01:31:39.292Z,99.33
2017-07-06T01:32:07.311Z,99.24
2017-07-06T01:32:35.222Z,99.43
2017-07-06T01:33:03.216Z,99.9
2017-07-06T01:33:31.035Z,99.71
2017-07-06T01:33:59.147Z,99.99
2017-07-06T01:34:27.155Z,99.99
2017-07-06T01:34:55.284Z,99.99
2017-07-06T01:35:23.100Z,99.99
2017-07-06T01:35:50.923Z,99.99
2017-07-06T01:36:18.870Z,99.99
2017-07-06T01:36:46.704Z,99.99
2017-07-06T01:37:14.728Z,99.99
2017-07-06T01:37:42.683Z,99.99
2017-07-06T01:38:10.539Z,99.99
2017-07-06T01:38:38.572Z,99.99
2017-07-06T01:39:06.585Z,99.99
2017-07-06T01:39:34.699Z,99.99
2017-07-06T01:40:02.812Z,99.99
2017-07-06T01:40:30.747Z,99.99
2017-07-06T01:40:58.548Z,99.99
2017-07-06T01:41:26.578Z,99.99
2017-07-06T01:41:54.596Z,99.99
2017-07-06T01:42:22.626Z,99.99
2017-07-06T01:42:50.662Z,99.99
2017-07-06T01:43:18.761Z,99.99
2017-07-06T01:43:46.803Z,99.99
2017-07-06T01:44:14.833Z,99.99
2017-07-06T01:44:42.884Z,99.99
2017-07-06T01:45:10.806Z,99.99
2017-07-06T01:45:38.822Z,99.81
2017-07-06T01:46:06.961Z,99.81
2017-07-06T01:46:34.959Z,99.99
2017-07-06T01:47:03.088Z,99.99
2017-07-06T01:47:30.914Z,99.81
2017-07-06T01:47:59.037Z,99.9
2017-07-06T01:48:27.157Z,99.81
2017-07-06T01:48:55.289Z,99.99
2017-07-06T01:49:23.081Z,99.99
2017-07-06T01:49:51.204Z,99.9
2017-07-06T01:50:19.325Z,99.99
2017-07-06T01:50:47.251Z,99.81
2017-07-06T01:51:15.215Z,99.33
2017-07-06T01:51:43.360Z,98.95
2017-07-06T01:52:11.323Z,98.85
2017-07-06T01:52:39.138Z,98.95
2017-07-06T01:53:07.257Z,98.95
2017-07-06T01:53:35.282Z,98.66
2017-07-06T01:54:03.293Z,98.47
2017-07-06T01:54:31.030Z,98.66
2017-07-06T01:54:59.067Z,98.28
2017-07-06T01:55:27.208Z,98.09
2017-07-06T01:55:55.241Z,98.47
2017-07-06T01:56:23.047Z,98.18
2017-07-06T01:56:51.075Z,98.28
2017-07-06T01:57:19.108Z,98.66
2017-07-06T01:57:47.048Z,98.47
2017-07-06T01:58:15.060Z,98.38
2017-07-06T01:58:43.178Z,98.75
2017-07-06T01:59:11.131Z,98.47
2017-07-06T01:59:39.165Z,98.09
2017-07-06T02:00:07.172Z,98.75
2017-07-06T02:00:35.144Z,98.47
2017-07-06T02:01:03.177Z,97.99
2017-07-06T02:01:31.089Z,98.47
2017-07-06T02:01:59.211Z,98.85
2017-07-06T02:02:27.212Z,99.43
2017-07-06T02:02:55.319Z,99.62
2017-07-06T02:03:23.359Z,99.99
2017-07-06T02:03:51.380Z,99.62
2017-07-06T02:04:19.272Z,99.99
2017-07-06T02:04:47.408Z,99.9
2017-07-06T02:05:15.427Z,99.99
2017-07-06T02:05:43.449Z,99.99
2017-07-06T02:06:11.457Z,99.99
2017-07-06T02:06:39.469Z,99.99
2017-07-06T02:07:07.531Z,99.99
2017-07-06T02:07:35.528Z,99.99
2017-07-06T02:08:03.445Z,99.99
2017-07-06T02:08:31.450Z,99.99
2017-07-06T02:08:59.514Z,99.99
2017-07-06T02:09:27.700Z,99.99
2017-07-06T02:09:55.884Z,99.99
2017-07-06T02:10:23.942Z,99.99
2017-07-06T02:10:52.068Z,99.99
2017-07-06T02:11:19.984Z,99.99
2017-07-06T02:11:48.013Z,99.99
2017-07-06T02:12:15.939Z,99.99
2017-07-06T02:12:44.070Z,99.99
2017-07-06T02:13:12.239Z,99.99
2017-07-06T02:13:40.574Z,99.99
2017-07-06T02:14:08.719Z,99.99
2017-07-06T02:14:36.729Z,99.99
2017-07-06T02:15:04.794Z,99.99
2017-07-06T02:15:32.825Z,99.99
2017-07-06T02:16:00.837Z,99.99
2017-07-06T02:16:28.664Z,99.99
2017-07-06T02:16:56.494Z,99.99
2017-07-06T02:17:24.531Z,99.99
2017-07-06T02:17:52.672Z,99.99
2017-07-06T02:18:20.791Z,99.99
2017-07-06T02:18:48.839Z,99.99
2017-07-06T02:19:16.880Z,99.99
2017-07-06T02:19:44.999Z,99.99
2017-07-06T02:20:13.027Z,99.99
2017-07-06T02:20:41.045Z,99.99
2017-07-06T02:21:09.246Z,99.99
2017-07-06T02:21:37.173Z,99.99
2017-07-06T02:22:04.998Z,99.99
2017-07-06T02:22:32.983Z,99.99
2017-07-06T02:23:01.087Z,99.99
2017-07-06T02:23:28.907Z,99.99
2017-07-06T02:23:56.823Z,99.99
2017-07-06T02:24:24.937Z,99.99
2017-07-06T02:24:53.041Z,99.99
2017-07-06T02:25:21.082Z,99.99
2017-07-06T02:25:49.108Z,99.99
2017-07-06T02:26:17.131Z,99.99
2017-07-06T02:26:45.151Z,99.99
2017-07-06T02:27:13.300Z,99.99
2017-07-06T02:27:41.435Z,99.99
2017-07-06T02:28:09.546Z,99.99
2017-07-06T02:28:37.558Z,99.99
2017-07-06T02:29:05.692Z,99.99
2017-07-06T02:29:34.049Z,99.99
2017-07-06T02:30:01.950Z,99.99
2017-07-06T02:30:30.075Z,99.99
2017-07-06T02:30:57.864Z,99.99
2017-07-06T02:31:25.875Z,99.99
2017-07-06T02:31:53.899Z,99.99
2017-07-06T02:32:21.930Z,99.99
2017-07-06T02:32:50.056Z,99.99
2017-07-06T02:33:17.997Z,99.99
2017-07-06T02:33:45.913Z,99.99
2017-07-06T02:34:13.948Z,99.99
2017-07-06T02:34:41.991Z,99.99
2017-07-06T02:35:10.193Z,99.99
2017-07-06T02:35:38.137Z,99.99
2017-07-06T02:36:06.263Z,99.99
2017-07-06T02:36:34.260Z,99.99
2017-07-06T02:37:02.262Z,99.99
2017-07-06T02:37:30.159Z,99.99
2017-07-06T02:37:58.188Z,99.99
2017-07-06T02:38:26.197Z,99.99
2017-07-06T02:38:54.315Z,99.99
2017-07-06T02:39:22.342Z,99.99
2017-07-06T02:39:50.354Z,99.99
2017-07-06T02:40:18.291Z,99.99
2017-07-06T02:40:46.207Z,99.99
2017-07-06T02:41:14.196Z,99.99
2017-07-06T02:41:42.319Z,99.99
2017-07-06T02:42:10.211Z,99.99
2017-07-06T02:42:38.133Z,99.99
2017-07-06T02:43:06.226Z,99.99
2017-07-06T02:43:34.256Z,99.99
2017-07-06T02:44:02.261Z,99.99
2017-07-06T02:44:30.200Z,99.99
2017-07-06T02:44:58.093Z,99.99
2017-07-06T02:45:26.026Z,99.99
2017-07-06T02:45:54.027Z,99.99
2017-07-06T02:46:21.954Z,99.99
2017-07-06T02:46:49.982Z,99.99
2017-07-06T02:47:17.998Z,99.99
2017-07-06T02:47:46.013Z,99.99
2017-07-06T02:48:13.948Z,99.99
2017-07-06T02:48:41.838Z,99.99
2017-07-06T02:49:09.726Z,99.99
2017-07-06T02:49:37.867Z,99.99
2017-07-06T02:50:05.713Z,99.99
2017-07-06T02:50:33.820Z,99.99
2017-07-06T02:51:01.765Z,99.99
2017-07-06T02:51:29.655Z,99.99
2017-07-06T02:51:57.590Z,99.99
2017-07-06T02:52:25.724Z,99.99
2017-07-06T02:52:53.851Z,99.99
2017-07-06T02:53:21.852Z,99.99
2017-07-06T02:53:49.976Z,99.99
2017-07-06T02:54:17.971Z,99.99
2017-07-06T02:54:46.010Z,99.99
2017-07-06T02:55:13.943Z,99.99
2017-07-06T02:55:41.995Z,99.99
2017-07-06T02:56:10.111Z,99.99
2017-07-06T02:56:38.212Z,99.99
2017-07-06T02:57:06.217Z,99.99
2017-07-06T02:57:34.331Z,99.99
2017-07-06T02:58:02.388Z,99.99
2017-07-06T02:58:30.315Z,99.99
2017-07-06T02:58:58.408Z,99.99
2017-07-06T02:59:26.438Z,99.99
2017-07-06T02:59:54.571Z,99.99
2017-07-06T03:00:22.587Z,99.99
2017-07-06T03:00:50.608Z,99.99
2017-07-06T03:01:18.635Z,99.99
2017-07-06T03:01:46.789Z,99.99
2017-07-06T03:02:14.780Z,99.99
2017-07-06T03:02:42.702Z,99.99
2017-07-06T03:03:10.715Z,99.99
2017-07-06T03:03:38.725Z,99.99
2017-07-06T03:04:06.712Z,99.99
2017-07-06T03:04:34.646Z,99.99
2017-07-06T03:05:02.673Z,99.99
2017-07-06T03:05:30.621Z,99.99
2017-07-06T03:05:58.760Z,99.99
2017-07-06T03:06:26.888Z,99.99
2017-07-06T03:06:54.892Z,99.99
2017-07-06T03:07:22.987Z,99.99
2017-07-06T03:07:51.126Z,99.99
2017-07-06T03:08:19.251Z,99.99
2017-07-06T03:08:47.249Z,99.99
2017-07-06T03:09:15.374Z,99.99
2017-07-06T03:09:43.359Z,99.99
2017-07-06T03:10:11.367Z,99.99
2017-07-06T03:10:39.292Z,99.99
2017-07-06T03:11:07.408Z,99.99
2017-07-06T03:11:35.547Z,99.99
2017-07-06T03:12:03.574Z,99.99
2017-07-06T03:12:31.576Z,99.99
2017-07-06T03:12:59.698Z,99.99
2017-07-06T03:13:27.821Z,99.99
2017-07-06T03:13:55.994Z,99.99
2017-07-06T03:14:24.049Z,99.99
2017-07-06T03:14:51.970Z,99.99
2017-07-06T03:15:20.110Z,99.99
2017-07-06T03:15:47.899Z,99.99
2017-07-06T03:16:15.919Z,99.99
2017-07-06T03:16:43.922Z,99.99
2017-07-06T03:17:12.030Z,99.99
2017-07-06T03:17:40.074Z,99.99
2017-07-06T03:18:08.196Z,99.99
2017-07-06T03:18:36.217Z,99.99
2017-07-06T03:19:04.349Z,99.99
2017-07-06T03:19:32.497Z,99.99
2017-07-06T03:20:00.605Z,99.99
2017-07-06T03:20:28.500Z,99.99
2017-07-06T03:20:56.662Z,99.99
2017-07-06T03:21:24.747Z,99.99
2017-07-06T03:21:52.871Z,99.99
2017-07-06T03:22:20.817Z,99.99
2017-07-06T03:22:48.871Z,99.99
2017-07-06T03:23:16.914Z,99.99
2017-07-06T03:23:44.924Z,99.99
2017-07-06T03:24:12.946Z,99.99
2017-07-06T03:24:40.935Z,99.99
2017-07-06T03:25:08.754Z,99.99
2017-07-06T03:25:36.772Z,99.99
2017-07-06T03:26:04.884Z,99.99
2017-07-06T03:26:33.026Z,99.99
2017-07-06T03:27:00.942Z,99.99
2017-07-06T03:27:28.993Z,99.99
2017-07-06T03:27:57.121Z,99.99
2017-07-06T03:28:25.055Z,99.99
2017-07-06T03:28:53.197Z,99.99
2017-07-06T03:29:21.223Z,99.99
2017-07-06T03:29:49.221Z,99.99
2017-07-06T03:30:17.137Z,99.99
2017-07-06T03:30:45.232Z,99.99
2017-07-06T03:31:13.256Z,99.99
2017-07-06T03:31:41.386Z,99.99
2017-07-06T03:32:09.405Z,99.99
2017-07-06T03:32:37.422Z,99.99
2017-07-06T03:33:05.532Z,99.99
2017-07-06T03:33:33.527Z,99.99
2017-07-06T03:34:01.367Z,99.99
2017-07-06T03:34:29.481Z,99.99
2017-07-06T03:34:57.491Z,99.99
2017-07-06T03:35:25.621Z,99.99
2017-07-06T03:35:53.417Z,99.99
2017-07-06T03:36:21.553Z,99.99
2017-07-06T03:36:49.547Z,99.99
2017-07-06T03:37:17.392Z,99.99
2017-07-06T03:37:45.523Z,99.99
2017-07-06T03:38:13.536Z,99.99
2017-07-06T03:38:41.645Z,99.99
2017-07-06T03:39:09.674Z,99.99
2017-07-06T03:39:37.692Z,99.99
2017-07-06T03:40:05.674Z,99.99
2017-07-06T03:40:33.783Z,99.99
2017-07-06T03:41:01.700Z,99.99
2017-07-06T03:41:29.702Z,99.99
2017-07-06T03:41:57.646Z,99.99
2017-07-06T03:42:25.687Z,99.99
2017-07-06T03:42:53.838Z,99.99
2017-07-06T03:43:21.855Z,99.99
2017-07-06T03:43:49.980Z,99.99
2017-07-06T03:44:18.028Z,99.99
2017-07-06T03:44:46.081Z,99.99
2017-07-06T03:45:13.986Z,99.99
2017-07-06T03:45:42.079Z,99.99
2017-07-06T03:46:10.089Z,99.99
2017-07-06T03:46:38.103Z,99.99
2017-07-06T03:47:06.225Z,99.99
2017-07-06T03:47:34.265Z,99.99
2017-07-06T03:48:02.178Z,99.99
2017-07-06T03:48:30.284Z,99.99
2017-07-06T03:48:58.398Z,99.99
2017-07-06T03:49:26.343Z,99.99
2017-07-06T03:49:54.297Z,99.99
2017-07-06T03:50:22.438Z,99.99
2017-07-06T03:50:50.482Z,99.99
2017-07-06T03:51:18.400Z,99.99
2017-07-06T03:51:46.444Z,99.99
2017-07-06T03:52:14.589Z,99.99
2017-07-06T03:52:42.718Z,99.99
2017-07-06T03:53:10.742Z,99.99
2017-07-06T03:53:38.777Z,99.99
2017-07-06T03:54:06.870Z,99.99
2017-07-06T03:54:34.888Z,99.99
2017-07-06T03:55:03.011Z,99.99
2017-07-06T03:55:30.851Z,99.99
2017-07-06T03:55:58.962Z,99.99
2017-07-06T03:56:26.891Z,99.99
2017-07-06T03:56:55.019Z,99.99
2017-07-06T03:57:23.151Z,99.99
2017-07-06T03:57:51.177Z,99.99
2017-07-06T03:58:19.205Z,99.99
2017-07-06T03:58:47.317Z,99.99
2017-07-06T03:59:15.451Z,99.99
2017-07-06T03:59:43.274Z,99.99
2017-07-06T04:00:11.288Z,99.99
2017-07-06T04:00:39.416Z,99.99
2017-07-06T04:01:07.520Z,99.99
2017-07-06T04:01:35.554Z,99.99
2017-07-06T04:02:03.618Z,99.99
2017-07-06T04:02:31.718Z,99.99
2017-07-06T04:02:59.884Z,99.99
2017-07-06T04:03:28.113Z,99.99
2017-07-06T04:03:56.162Z,99.99
2017-07-06T04:04:24.192Z,99.99
2017-07-06T04:04:52.320Z,99.99
2017-07-06T04:05:20.235Z,99.99
2017-07-06T04:05:48.157Z,99.99
2017-07-06T04:06:16.280Z,99.99
2017-07-06T04:06:44.418Z,99.99
2017-07-06T04:07:12.359Z,99.99
2017-07-06T04:07:40.350Z,99.99
2017-07-06T04:08:08.373Z,99.99
2017-07-06T04:08:36.423Z,99.99
2017-07-06T04:09:04.438Z,99.99
2017-07-06T04:09:32.593Z,99.99
2017-07-06T04:10:00.630Z,99.99
2017-07-06T04:10:28.646Z,99.99
2017-07-06T04:10:56.776Z,99.99
2017-07-06T04:11:24.800Z,99.99
2017-07-06T04:11:52.808Z,99.99
2017-07-06T04:12:20.714Z,99.99
2017-07-06T04:12:48.639Z,99.99
2017-07-06T04:13:16.570Z,99.99
2017-07-06T04:13:44.616Z,99.99
2017-07-06T04:14:12.472Z,99.99
2017-07-06T04:14:40.479Z,99.99
2017-07-06T04:15:08.507Z,99.99
2017-07-06T04:15:36.423Z,99.99
2017-07-06T04:16:04.535Z,99.99
2017-07-06T04:16:32.465Z,99.99
2017-07-06T04:17:00.496Z,99.99
2017-07-06T04:17:28.397Z,99.99
2017-07-06T04:17:56.430Z,99.99
2017-07-06T04:18:24.549Z,99.99
2017-07-06T04:18:52.586Z,99.99
2017-07-06T04:19:20.613Z,99.99
2017-07-06T04:19:48.718Z,99.99
2017-07-06T04:20:16.634Z,99.99
2017-07-06T04:20:44.658Z,99.99
2017-07-06T04:21:12.788Z,99.99
2017-07-06T04:21:40.808Z,99.99
2017-07-06T04:22:08.928Z,99.99
2017-07-06T04:22:36.825Z,99.99
2017-07-06T04:23:04.620Z,99.99
2017-07-06T04:23:32.427Z,99.99
2017-07-06T04:24:00.466Z,99.99
2017-07-06T04:24:28.358Z,99.99
2017-07-06T04:24:56.348Z,99.99
2017-07-06T04:25:24.464Z,99.99
2017-07-06T04:25:52.368Z,99.99
2017-07-06T04:26:20.199Z,99.99
2017-07-06T04:26:48.210Z,99.99
2017-07-06T04:27:16.158Z,99.99
2017-07-06T04:27:44.187Z,99.99
2017-07-06T04:28:12.102Z,99.99
2017-07-06T04:28:40.225Z,99.99
2017-07-06T04:29:08.143Z,99.99
2017-07-06T04:29:36.176Z,99.99
2017-07-06T04:30:04.187Z,99.99
2017-07-06T04:30:32.089Z,99.99
2017-07-06T04:31:00.207Z,99.99
2017-07-06T04:31:28.121Z,99.99
2017-07-06T04:31:56.255Z,99.99
2017-07-06T04:32:24.286Z,99.99
2017-07-06T04:32:52.381Z,99.99
2017-07-06T04:33:20.381Z,99.99
2017-07-06T04:33:48.506Z,99.99
2017-07-06T04:34:16.639Z,99.99
2017-07-06T04:34:44.437Z,99.99
2017-07-06T04:35:12.453Z,99.99
2017-07-06T04:35:40.563Z,99.99
2017-07-06T04:36:08.689Z,99.99
2017-07-06T04:36:36.714Z,99.99
2017-07-06T04:37:04.852Z,99.99
2017-07-06T04:37:32.980Z,99.99
2017-07-06T04:38:00.797Z,99.99
2017-07-06T04:38:28.931Z,99.99
2017-07-06T04:38:56.831Z,99.99
2017-07-06T04:39:24.972Z,99.99
2017-07-06T04:39:53.109Z,99.99
2017-07-06T04:40:21.121Z,99.99
2017-07-06T04:40:49.142Z,99.99
2017-07-06T04:41:17.155Z,99.99
2017-07-06T04:41:45.277Z,99.99
2017-07-06T04:42:13.400Z,99.99
2017-07-06T04:42:41.518Z,99.99
2017-07-06T04:43:09.545Z,99.99
2017-07-06T04:43:37.458Z,99.99
2017-07-06T04:44:05.564Z,99.99
2017-07-06T04:44:33.568Z,99.99
2017-07-06T04:45:01.583Z,99.99
2017-07-06T04:45:29.701Z,99.99
2017-07-06T04:45:57.843Z,99.99
2017-07-06T04:46:25.771Z,99.99
2017-07-06T04:46:53.692Z,99.99
2017-07-06T04:47:21.627Z,99.99
2017-07-06T04:47:49.660Z,99.99
2017-07-06T04:48:17.796Z,99.99
2017-07-06T04:48:45.717Z,99.99
2017-07-06T04:49:13.759Z,99.99
2017-07-06T04:49:41.893Z,99.99
2017-07-06T04:50:10.012Z,99.99
2017-07-06T04:50:38.154Z,99.99
2017-07-06T04:51:06.291Z,99.99
2017-07-06T04:51:34.132Z,99.99
2017-07-06T04:52:02.042Z,99.99
2017-07-06T04:52:30.183Z,99.99
2017-07-06T04:52:58.190Z,99.99
2017-07-06T04:53:25.994Z,99.99
2017-07-06T04:53:54.095Z,99.99
2017-07-06T04:54:22.096Z,99.99
2017-07-06T04:54:49.993Z,99.99
2017-07-06T04:55:18.006Z,99.99
2017-07-06T04:55:46.016Z,99.99
2017-07-06T04:56:14.038Z,99.99
2017-07-06T04:56:42.169Z,99.99
2017-07-06T04:57:10.190Z,99.99
2017-07-06T04:57:38.300Z,99.99
2017-07-06T04:58:06.323Z,99.99
2017-07-06T04:58:34.430Z,99.99
2017-07-06T04:59:02.452Z,99.99
2017-07-06T04:59:30.933Z,99.99
2017-07-06T04:59:58.850Z,99.99
2017-07-06T05:00:26.891Z,99.99
2017-07-06T05:00:54.924Z,99.99
2017-07-06T05:01:22.934Z,99.99
2017-07-06T05:01:50.948Z,99.99
2017-07-06T05:02:19.237Z,99.99
2017-07-06T05:02:47.052Z,99.99
2017-07-06T05:03:15.058Z,99.99
2017-07-06T05:03:43.188Z,99.99
2017-07-06T05:04:11.179Z,99.99
2017-07-06T05:04:39.302Z,99.99
2017-07-06T05:05:07.434Z,99.99
2017-07-06T05:05:35.430Z,99.99
2017-07-06T05:06:03.550Z,99.99
2017-07-06T05:06:31.650Z,99.99
2017-07-06T05:06:59.672Z,99.99
2017-07-06T05:07:27.790Z,99.99
2017-07-06T05:07:55.851Z,99.99
2017-07-06T05:08:23.871Z,99.99
2017-07-06T05:08:51.889Z,99.99
2017-07-06T05:09:19.812Z,99.99
2017-07-06T05:09:47.923Z,99.99
2017-07-06T05:10:15.956Z,99.99
2017-07-06T05:10:44.080Z,99.99
2017-07-06T05:11:11.994Z,99.99
2017-07-06T05:11:40.025Z,99.99
2017-07-06T05:12:08.043Z,99.99
2017-07-06T05:12:36.160Z,99.99
2017-07-06T05:13:04.067Z,99.99
2017-07-06T05:13:32.103Z,99.99
2017-07-06T05:14:00.120Z,99.99
2017-07-06T05:14:27.925Z,99.99
2017-07-06T05:14:56.037Z,99.99
2017-07-06T05:15:24.047Z,99.99
2017-07-06T05:15:52.156Z,99.99
2017-07-06T05:16:20.184Z,99.99
2017-07-06T05:16:48.313Z,99.99
2017-07-06T05:17:16.436Z,99.99
2017-07-06T05:17:44.336Z,99.99
2017-07-06T05:18:12.148Z,99.99
2017-07-06T05:18:40.261Z,99.99
2017-07-06T05:19:08.284Z,99.99
2017-07-06T05:19:36.416Z,99.99
2017-07-06T05:20:04.418Z,99.99
2017-07-06T05:20:32.444Z,99.99
2017-07-06T05:21:00.527Z,99.99
2017-07-06T05:21:28.474Z,99.99
2017-07-06T05:21:56.570Z,99.99
2017-07-06T05:22:24.577Z,99.99
2017-07-06T05:22:52.609Z,99.99
2017-07-06T05:23:20.425Z,99.99
2017-07-06T05:23:48.421Z,99.99
2017-07-06T05:24:16.461Z,99.99
2017-07-06T05:24:44.361Z,99.99
2017-07-06T05:25:12.288Z,99.99
2017-07-06T05:25:40.421Z,99.99
2017-07-06T05:26:08.361Z,99.99
2017-07-06T05:26:36.457Z,99.99
2017-07-06T05:27:04.543Z,99.99
2017-07-06T05:27:32.557Z,99.99
2017-07-06T05:28:00.579Z,99.99
2017-07-06T05:28:28.727Z,99.99
2017-07-06T05:28:56.833Z,99.99
2017-07-06T05:29:24.979Z,99.99
2017-07-06T05:29:53.125Z,99.99
2017-07-06T05:30:21.150Z,99.99
2017-07-06T05:30:49.171Z,99.99
2017-07-06T05:31:17.091Z,99.99
2017-07-06T05:31:45.101Z,99.99
2017-07-06T05:32:13.025Z,99.99
2017-07-06T05:32:41.124Z,99.99
2017-07-06T05:33:09.130Z,99.99
2017-07-06T05:33:37.148Z,99.99
2017-07-06T05:34:05.174Z,99.99
2017-07-06T05:34:33.214Z,99.99
2017-07-06T05:35:01.253Z,99.99
2017-07-06T05:35:29.279Z,99.99
2017-07-06T05:35:57.330Z,99.99
2017-07-06T05:36:25.339Z,99.99
2017-07-06T05:36:53.455Z,99.99
2017-07-06T05:37:21.452Z,99.99
2017-07-06T05:37:49.378Z,99.99
2017-07-06T05:38:17.398Z,99.99
2017-07-06T05:38:45.422Z,99.99
2017-07-06T05:39:13.500Z,99.99
2017-07-06T05:39:41.568Z,99.99
2017-07-06T05:40:09.694Z,99.99
2017-07-06T05:40:37.699Z,99.99
2017-07-06T05:41:05.726Z,99.99
2017-07-06T05:41:33.763Z,99.99
2017-07-06T05:42:01.912Z,99.99
2017-07-06T05:42:30.018Z,99.99
2017-07-06T05:42:58.063Z,99.99
2017-07-06T05:43:26.104Z,99.99
2017-07-06T05:43:54.018Z,99.99
2017-07-06T05:44:21.999Z,99.99
2017-07-06T05:44:50.045Z,99.99
2017-07-06T05:45:18.198Z,99.99
2017-07-06T05:45:46.333Z,99.99
2017-07-06T05:46:14.371Z,99.99
2017-07-06T05:46:42.290Z,99.99
2017-07-06T05:47:10.204Z,99.99
2017-07-06T05:47:38.219Z,99.99
2017-07-06T05:48:06.325Z,99.99
2017-07-06T05:48:34.257Z,99.99
2017-07-06T05:49:02.283Z,99.99
2017-07-06T05:49:30.176Z,99.99
2017-07-06T05:49:58.287Z,99.99
2017-07-06T05:50:26.400Z,99.99
2017-07-06T05:50:54.545Z,99.99
2017-07-06T05:51:22.652Z,99.99
2017-07-06T05:51:50.575Z,99.99
2017-07-06T05:52:18.696Z,99.99
2017-07-06T05:52:46.827Z,99.99
2017-07-06T05:53:14.643Z,99.99
2017-07-06T05:53:42.673Z,99.99
2017-07-06T05:54:10.782Z,99.99
2017-07-06T05:54:38.811Z,99.99
2017-07-06T05:55:06.907Z,99.99
2017-07-06T05:55:35.038Z,99.99
2017-07-06T05:56:03.072Z,99.99
2017-07-06T05:56:30.985Z,99.99
2017-07-06T05:56:59.121Z,99.99
2017-07-06T05:57:27.260Z,99.99
2017-07-06T05:57:55.378Z,99.99
2017-07-06T05:58:23.176Z,99.99
2017-07-06T05:58:51.195Z,99.99
2017-07-06T05:59:19.093Z,99.99
2017-07-06T05:59:47.106Z,99.99
2017-07-06T06:00:15.115Z,99.99
2017-07-06T06:00:43.309Z,99.99
2017-07-06T06:01:11.325Z,99.99
2017-07-06T06:01:39.358Z,99.99